Time;durP1;ratioP1;P1;durP2;ratioP2;P2;SDS_P1;SDS_P2;PMS_P1;PMS_P2;Temp;Humidity;BMP_temperature;BMP_pressure;BME280_temperature;BME280_humidity;BME280_pressure;Samples;Min_cycle;Max_cycle;Signal;HPM_P1;HPM_P2
2022/01/05 00:01:25;;;;;;;23.77;13.02;;;11.00;99.90;;;;;;5311047;27;20057;-75
2022/01/05 00:03:56;;;;;;;26.50;13.80;;;10.70;99.90;;;;;;5310807;27;20664;-75
2022/01/05 00:06:27;;;;;;;20.90;13.15;;;10.60;99.90;;;;;;5311391;27;20034;-74
2022/01/05 00:08:58;;;;;;;26.40;14.65;;;10.10;99.90;;;;;;5309849;27;20019;-74
2022/01/05 00:11:29;;;;;;;26.90;14.38;;;10.80;99.90;;;;;;5311291;27;20485;-74
2022/01/05 00:13:59;;;;;;;30.35;15.38;;;10.90;99.90;;;;;;5310985;27;20015;-74
2022/01/05 00:16:30;;;;;;;32.15;15.93;;;11.00;99.90;;;;;;5310949;27;20389;-75
2022/01/05 00:19:02;;;;;;;26.15;15.02;;;10.80;99.90;;;;;;5311100;27;20020;-75
2022/01/05 00:21:33;;;;;;;27.48;15.32;;;10.40;99.90;;;;;;5310851;27;20032;-74
2022/01/05 00:24:04;;;;;;;29.23;15.43;;;10.40;99.90;;;;;;5310908;27;20050;-74
2022/01/05 00:26:36;;;;;;;33.78;17.00;;;10.10;99.90;;;;;;5310682;27;20019;-74
2022/01/05 00:29:06;;;;;;;30.40;17.73;;;10.20;99.90;;;;;;5311099;27;20030;-74
2022/01/05 00:31:37;;;;;;;34.72;19.23;;;9.90;99.90;;;;;;5311678;27;20023;-74
2022/01/05 00:34:08;;;;;;;33.67;17.65;;;10.30;99.90;;;;;;5313075;27;20047;-77
2022/01/05 00:36:40;;;;;;;31.92;19.02;;;10.10;99.90;;;;;;5314714;27;20020;-74
2022/01/05 00:39:10;;;;;;;32.22;19.58;;;10.10;99.90;;;;;;5314536;27;20030;-75
2022/01/05 00:41:41;;;;;;;35.08;18.50;;;10.00;99.90;;;;;;5314288;27;20016;-74
2022/01/05 00:44:12;;;;;;;37.45;20.42;;;10.00;99.90;;;;;;5314343;27;20447;-78
2022/01/05 00:46:43;;;;;;;38.15;21.25;;;9.90;99.90;;;;;;5314532;27;20107;-74
2022/01/05 00:49:14;;;;;;;33.03;19.50;;;9.80;99.90;;;;;;5314596;27;20019;-74
2022/01/05 00:51:45;;;;;;;37.10;20.98;;;9.60;99.90;;;;;;5314540;27;20047;-80
2022/01/05 00:54:16;;;;;;;37.75;23.48;;;9.80;99.90;;;;;;5314420;27;20031;-74
2022/01/05 00:56:47;;;;;;;39.20;21.55;;;9.90;99.90;;;;;;5314588;27;20019;-74
2022/01/05 00:59:18;;;;;;;38.13;23.08;;;9.80;99.90;;;;;;5314255;27;20054;-74
2022/01/05 01:01:48;;;;;;;35.92;23.98;;;10.30;99.90;;;;;;5314133;27;20454;-75
2022/01/05 01:04:20;;;;;;;36.92;22.67;;;10.10;99.90;;;;;;5313837;27;20043;-74
2022/01/05 01:06:50;;;;;;;36.80;23.95;;;10.20;99.90;;;;;;5313965;27;20071;-74
2022/01/05 01:09:21;;;;;;;42.20;23.48;;;10.00;99.90;;;;;;5314126;27;20470;-74
2022/01/05 01:11:52;;;;;;;36.20;23.33;;;10.40;99.90;;;;;;5314101;27;20489;-76
2022/01/05 01:14:23;;;;;;;38.35;23.15;;;10.30;99.90;;;;;;5313925;27;20019;-75
2022/01/05 01:16:54;;;;;;;42.05;25.02;;;10.00;99.90;;;;;;5313857;27;20046;-77
2022/01/05 01:19:25;;;;;;;41.10;25.38;;;9.90;99.90;;;;;;5313709;27;20027;-80
2022/01/05 01:21:57;;;;;;;37.92;23.10;;;10.10;99.90;;;;;;5313887;27;20066;-74
2022/01/05 01:24:29;;;;;;;38.83;23.40;;;10.20;99.90;;;;;;5313653;27;20031;-74
2022/01/05 01:27:00;;;;;;;37.13;23.48;;;10.40;99.90;;;;;;5313804;27;20019;-74
2022/01/05 01:29:31;;;;;;;40.72;23.70;;;10.30;99.90;;;;;;5313329;27;20526;-74
2022/01/05 01:32:04;;;;;;;42.17;24.63;;;10.40;99.90;;;;;;5313602;27;20020;-74
2022/01/05 01:34:35;;;;;;;43.38;26.63;;;10.40;99.90;;;;;;5313215;27;20039;-74
2022/01/05 01:37:06;;;;;;;42.22;25.88;;;10.40;99.90;;;;;;5313380;27;20101;-74
2022/01/05 01:39:37;;;;;;;39.28;24.05;;;10.40;99.90;;;;;;5313333;27;20431;-75
2022/01/05 01:42:07;;;;;;;42.53;25.55;;;10.30;99.90;;;;;;5313401;27;20027;-75
2022/01/05 01:44:38;;;;;;;40.97;25.92;;;10.30;99.90;;;;;;5313220;27;20031;-74
2022/01/05 01:47:09;;;;;;;45.38;26.38;;;10.20;99.90;;;;;;5313287;27;20038;-74
2022/01/05 01:49:41;;;;;;;37.10;25.23;;;10.20;99.90;;;;;;5313258;27;20003;-74
2022/01/05 01:52:12;;;;;;;43.25;25.52;;;10.30;99.90;;;;;;5313101;27;20046;-74
2022/01/05 01:54:43;;;;;;;36.13;23.90;;;10.40;99.90;;;;;;5313091;27;20027;-74
2022/01/05 01:57:14;;;;;;;34.92;24.05;;;10.30;99.90;;;;;;5313346;27;20026;-74
2022/01/05 01:59:46;;;;;;;36.95;24.52;;;10.30;99.90;;;;;;5312937;27;20031;-74
2022/01/05 02:02:17;;;;;;;41.10;23.08;;;10.40;99.90;;;;;;5313006;27;20339;-74
2022/01/05 02:04:48;;;;;;;39.13;23.75;;;10.20;99.90;;;;;;5312624;27;20040;-74
2022/01/05 02:07:19;;;;;;;40.35;23.63;;;9.90;99.90;;;;;;5312751;27;20022;-74
2022/01/05 02:09:50;;;;;;;35.83;23.48;;;10.10;99.90;;;;;;5311490;27;20027;-74
2022/01/05 02:12:26;;;;;;;34.80;22.23;;;10.20;99.90;;;;;;5312885;27;20025;-74
2022/01/05 02:14:57;;;;;;;35.03;22.25;;;10.20;99.90;;;;;;5312678;27;20110;-74
2022/01/05 02:17:44;;;;;;;36.15;22.13;;;10.20;99.90;;;;;;5312469;27;20144;-74
2022/01/05 02:20:20;;;;;;;32.28;21.48;;;9.90;99.90;;;;;;5312607;27;20034;-74
2022/01/05 02:22:52;;;;;;;35.97;22.83;;;10.00;99.90;;;;;;5311413;27;20381;-74
2022/01/05 02:25:24;;;;;;;35.72;21.50;;;10.20;99.90;;;;;;5312355;27;20038;-74
2022/01/05 02:27:56;;;;;;;32.65;21.42;;;10.30;99.90;;;;;;5312408;27;20477;-74
2022/01/05 02:30:28;;;;;;;37.22;21.65;;;10.10;99.90;;;;;;5312398;27;20542;-74
2022/01/05 02:33:00;;;;;;;39.50;20.83;;;10.20;99.90;;;;;;5312254;27;20019;-74
2022/01/05 02:35:31;;;;;;;31.70;19.27;;;10.00;99.90;;;;;;5311979;27;20051;-74
2022/01/05 02:38:02;;;;;;;29.30;19.85;;;10.50;99.90;;;;;;5312269;27;20027;-74
2022/01/05 02:40:32;;;;;;;31.98;18.50;;;10.50;99.90;;;;;;5312348;27;20027;-74
2022/01/05 02:43:03;;;;;;;26.92;19.25;;;10.60;99.90;;;;;;5312255;27;20059;-75
2022/01/05 02:45:34;;;;;;;30.13;18.27;;;10.60;99.90;;;;;;5311951;27;20164;-79
2022/01/05 02:48:05;;;;;;;23.77;17.67;;;10.70;99.90;;;;;;5311835;27;20386;-74
2022/01/05 02:50:36;;;;;;;30.60;18.98;;;10.60;99.90;;;;;;5311989;27;20022;-74
2022/01/05 02:53:07;;;;;;;32.47;18.42;;;10.70;99.90;;;;;;5312063;27;20091;-76
2022/01/05 02:55:38;;;;;;;28.35;19.48;;;10.90;99.90;;;;;;5311212;27;20023;-76
2022/01/05 02:58:09;;;;;;;28.38;17.55;;;10.80;99.90;;;;;;5312065;27;20025;-74
2022/01/05 03:00:40;;;;;;;32.63;20.08;;;10.80;99.90;;;;;;5312192;27;20019;-80
2022/01/05 03:03:11;;;;;;;33.80;17.83;;;10.80;99.90;;;;;;5311638;27;20031;-74
2022/01/05 03:05:42;;;;;;;29.67;17.98;;;11.00;99.90;;;;;;5311718;27;20042;-75
2022/01/05 03:08:13;;;;;;;34.25;18.55;;;10.80;99.90;;;;;;5312004;27;20019;-74
2022/01/05 03:10:44;;;;;;;33.33;19.73;;;10.90;99.90;;;;;;5311642;27;20030;-75
2022/01/05 03:13:15;;;;;;;34.58;18.95;;;10.90;99.90;;;;;;5311647;27;20416;-74
2022/01/05 03:15:46;;;;;;;30.70;18.70;;;11.00;99.90;;;;;;5311784;27;20378;-74
2022/01/05 03:18:17;;;;;;;33.15;19.65;;;11.10;99.90;;;;;;5311603;27;20031;-74
2022/01/05 03:20:48;;;;;;;34.35;19.45;;;11.00;99.90;;;;;;5311571;27;20098;-74
2022/01/05 03:23:19;;;;;;;29.08;19.05;;;10.90;99.90;;;;;;5311596;27;20042;-74
2022/01/05 03:25:50;;;;;;;34.80;20.77;;;10.90;99.90;;;;;;5311249;27;20043;-74
2022/01/05 03:28:21;;;;;;;30.40;19.58;;;10.90;99.90;;;;;;5311387;27;20062;-74
2022/01/05 03:30:52;;;;;;;35.88;21.55;;;10.80;99.90;;;;;;5311465;27;20179;-74
2022/01/05 03:33:24;;;;;;;41.05;21.38;;;11.00;99.90;;;;;;5311324;27;20090;-74
2022/01/05 03:35:55;;;;;;;34.42;19.75;;;11.10;99.90;;;;;;5311110;27;20051;-74
2022/01/05 03:38:28;;;;;;;34.65;20.85;;;10.90;99.90;;;;;;5311398;27;20387;-74
2022/01/05 03:40:59;;;;;;;37.17;20.17;;;10.90;99.90;;;;;;5311465;27;20485;-74
2022/01/05 03:43:30;;;;;;;35.88;20.92;;;10.90;99.90;;;;;;5311305;27;20106;-74
2022/01/05 03:46:01;;;;;;;36.90;20.50;;;10.80;99.90;;;;;;5311124;27;20114;-74
2022/01/05 03:48:31;;;;;;;37.70;21.35;;;10.70;99.90;;;;;;5311279;27;20019;-74
2022/01/05 03:51:02;;;;;;;35.55;21.48;;;10.70;99.90;;;;;;5311302;27;20045;-74
2022/01/05 03:53:33;;;;;;;33.35;21.55;;;10.90;99.90;;;;;;5311464;27;20477;-80
2022/01/05 03:56:04;;;;;;;36.67;21.15;;;10.80;99.90;;;;;;5311166;27;20026;-74
2022/01/05 03:58:35;;;;;;;39.15;20.00;;;10.70;99.90;;;;;;5311191;27;20027;-74
2022/01/05 04:01:06;;;;;;;37.08;20.85;;;10.90;99.90;;;;;;5311156;27;20016;-74
2022/01/05 04:03:37;;;;;;;35.83;20.45;;;10.70;99.90;;;;;;5310898;27;20035;-74
2022/01/05 04:06:08;;;;;;;35.85;20.55;;;10.80;99.90;;;;;;5311008;27;20035;-75
2022/01/05 04:08:38;;;;;;;38.90;19.45;;;10.50;99.90;;;;;;5314748;27;20083;-74
2022/01/05 04:11:09;;;;;;;37.25;19.73;;;10.50;99.90;;;;;;5314755;27;20022;-74
2022/01/05 04:13:40;;;;;;;35.60;19.40;;;10.50;99.90;;;;;;5314669;27;20358;-74
2022/01/05 04:16:11;;;;;;;37.30;20.23;;;10.70;99.90;;;;;;5314153;27;20023;-74
2022/01/05 04:18:42;;;;;;;35.90;19.08;;;10.70;99.90;;;;;;5315349;27;20493;-74
2022/01/05 04:21:13;;;;;;;34.30;19.83;;;10.70;99.90;;;;;;5315055;27;20027;-74
2022/01/05 04:23:43;;;;;;;34.88;21.42;;;10.60;99.90;;;;;;5314991;27;20378;-74
2022/01/05 04:26:14;;;;;;;34.10;19.45;;;10.50;99.90;;;;;;5314491;27;20046;-74
2022/01/05 04:28:45;;;;;;;39.33;20.58;;;10.40;99.90;;;;;;5314839;27;20066;-74
2022/01/05 04:31:16;;;;;;;40.80;20.90;;;10.20;99.90;;;;;;5314721;27;20072;-78
2022/01/05 04:33:47;;;;;;;35.42;21.63;;;10.10;99.90;;;;;;5314444;27;20031;-79
2022/01/05 04:36:18;;;;;;;44.97;21.23;;;10.50;99.90;;;;;;5314935;27;20028;-75
2022/01/05 04:38:49;;;;;;;45.22;24.27;;;10.10;99.90;;;;;;5314622;27;20031;-74
2022/01/05 04:41:19;;;;;;;41.95;23.48;;;10.10;99.90;;;;;;5314560;27;20412;-74
2022/01/05 04:43:50;;;;;;;39.97;24.17;;;10.30;99.90;;;;;;5314572;27;20382;-75
2022/01/05 04:46:21;;;;;;;41.45;23.35;;;10.50;99.90;;;;;;5314419;27;20031;-74
2022/01/05 04:48:52;;;;;;;42.92;23.35;;;10.30;99.90;;;;;;5314711;27;20026;-80
2022/01/05 04:51:23;;;;;;;42.05;23.73;;;10.50;99.90;;;;;;5314488;27;20083;-74
2022/01/05 04:53:54;;;;;;;43.33;25.10;;;10.40;99.90;;;;;;5314280;27;20098;-74
2022/01/05 04:56:25;;;;;;;41.13;23.58;;;10.40;99.90;;;;;;5314524;27;20047;-74
2022/01/05 04:58:56;;;;;;;43.45;24.45;;;10.40;99.90;;;;;;5314139;27;20445;-74
2022/01/05 05:01:27;;;;;;;40.10;24.08;;;10.40;99.90;;;;;;5313017;27;20058;-73
2022/01/05 05:03:58;;;;;;;41.63;24.30;;;10.30;99.90;;;;;;5313911;27;20067;-74
2022/01/05 05:06:29;;;;;;;47.67;25.38;;;10.30;99.90;;;;;;5314037;27;20024;-73
2022/01/05 05:09:00;;;;;;;35.65;22.63;;;10.30;99.90;;;;;;5314029;27;20150;-74
2022/01/05 05:11:31;;;;;;;43.00;24.58;;;10.30;99.90;;;;;;5313948;27;20476;-74
2022/01/05 05:14:01;;;;;;;37.90;22.00;;;10.30;99.90;;;;;;5314230;27;20020;-78
2022/01/05 05:16:32;;;;;;;41.55;23.92;;;10.40;99.90;;;;;;5314070;27;20102;-74
2022/01/05 05:19:03;;;;;;;46.83;26.52;;;10.40;99.90;;;;;;5312340;27;20060;-80
2022/01/05 05:21:34;;;;;;;40.42;25.30;;;10.30;99.90;;;;;;5314077;27;20047;-79
2022/01/05 05:24:05;;;;;;;39.03;24.98;;;10.30;99.90;;;;;;5313525;27;20019;-74
2022/01/05 05:26:36;;;;;;;51.00;25.75;;;10.40;99.90;;;;;;5313636;27;20019;-74
2022/01/05 05:29:07;;;;;;;38.08;23.20;;;10.40;99.90;;;;;;5313584;27;20031;-75
2022/01/05 05:31:38;;;;;;;43.17;24.92;;;10.40;99.90;;;;;;5313711;27;20441;-74
2022/01/05 05:34:09;;;;;;;42.38;26.50;;;10.40;99.90;;;;;;5313161;27;20418;-74
2022/01/05 05:36:39;;;;;;;41.53;23.92;;;10.50;99.90;;;;;;5313649;27;20023;-74
2022/01/05 05:39:10;;;;;;;40.13;25.58;;;10.40;99.90;;;;;;5313572;27;20016;-75
2022/01/05 05:41:41;;;;;;;40.85;26.23;;;10.40;99.90;;;;;;5313342;27;20019;-74
2022/01/05 05:44:12;;;;;;;39.60;23.42;;;10.30;99.90;;;;;;5313171;27;20058;-79
2022/01/05 05:46:43;;;;;;;45.50;26.00;;;10.40;99.90;;;;;;5313294;27;20454;-74
2022/01/05 05:49:14;;;;;;;38.22;23.60;;;10.40;99.90;;;;;;5313324;27;20075;-74
2022/01/05 05:51:44;;;;;;;41.83;25.10;;;10.40;99.90;;;;;;5295459;27;20027;-73
2022/01/05 05:54:15;;;;;;;49.65;24.80;;;10.40;99.90;;;;;;5283963;28;20102;-73
2022/01/05 05:56:46;;;;;;;42.20;25.38;;;10.40;99.90;;;;;;5291421;27;20012;-74
2022/01/05 05:59:17;;;;;;;38.78;23.08;;;10.40;99.90;;;;;;5291270;28;20031;-74
2022/01/05 06:01:48;;;;;;;38.50;22.42;;;10.40;99.90;;;;;;5291126;28;20068;-74
2022/01/05 06:04:19;;;;;;;35.47;22.77;;;10.50;99.90;;;;;;5290932;28;20035;-74
2022/01/05 06:06:50;;;;;;;35.90;21.98;;;10.60;99.90;;;;;;5291120;28;20401;-74
2022/01/05 06:09:21;;;;;;;38.38;21.73;;;10.60;99.90;;;;;;5291164;28;20016;-74
2022/01/05 06:11:52;;;;;;;37.15;20.80;;;10.80;99.90;;;;;;5295239;27;20128;-74
2022/01/05 06:14:23;;;;;;;30.10;19.27;;;10.70;99.90;;;;;;5299284;27;20026;-74
2022/01/05 06:16:54;;;;;;;37.05;20.30;;;10.50;99.90;;;;;;5300078;27;20485;-77
2022/01/05 06:19:24;;;;;;;34.92;20.85;;;10.70;99.90;;;;;;5299364;27;20033;-74
2022/01/05 06:21:55;;;;;;;35.78;19.95;;;10.60;99.90;;;;;;5298956;27;20016;-75
2022/01/05 06:24:26;;;;;;;37.28;19.52;;;10.60;99.90;;;;;;5299132;27;20024;-76
2022/01/05 06:26:57;;;;;;;33.17;18.90;;;10.90;99.90;;;;;;5299222;27;20027;-74
2022/01/05 06:29:28;;;;;;;29.15;19.90;;;10.90;99.90;;;;;;5299739;27;20390;-80
2022/01/05 06:31:58;;;;;;;30.75;17.20;;;11.00;99.90;;;;;;5302047;27;20027;-75
2022/01/05 06:34:29;;;;;;;25.73;17.55;;;11.00;99.90;;;;;;5299544;27;20392;-74
2022/01/05 06:37:00;;;;;;;32.67;18.17;;;11.10;99.90;;;;;;5298866;27;20050;-79
2022/01/05 06:39:31;;;;;;;34.40;16.20;;;11.30;99.90;;;;;;5299076;27;20031;-74
2022/01/05 06:42:02;;;;;;;28.33;15.88;;;11.60;99.90;;;;;;5300179;27;20023;-74
2022/01/05 06:44:33;;;;;;;26.25;16.42;;;11.50;99.90;;;;;;5299982;27;20114;-78
2022/01/05 06:47:04;;;;;;;64.65;31.88;;;11.50;99.90;;;;;;5299009;27;20034;-80
2022/01/05 06:49:35;;;;;;;27.40;13.90;;;11.60;99.90;;;;;;5298599;27;20020;-74
2022/01/05 06:52:06;;;;;;;27.08;14.68;;;11.80;99.90;;;;;;5299645;27;20023;-74
2022/01/05 06:54:40;;;;;;;26.10;14.82;;;12.00;99.90;;;;;;5297994;27;20477;-75
2022/01/05 06:57:12;;;;;;;23.33;13.68;;;12.00;99.90;;;;;;5298899;27;20390;-75
2022/01/05 06:59:43;;;;;;;23.98;13.15;;;12.30;99.90;;;;;;5298720;27;20023;-74
2022/01/05 07:02:14;;;;;;;22.38;12.85;;;12.50;99.90;;;;;;5298289;27;20459;-74
2022/01/05 07:04:45;;;;;;;25.02;12.85;;;12.60;99.90;;;;;;5311374;27;20039;-79
2022/01/05 07:07:17;;;;;;;24.17;12.77;;;12.80;99.90;;;;;;5311674;27;20031;-74
2022/01/05 07:09:48;;;;;;;22.10;11.57;;;12.90;99.90;;;;;;5311974;27;20011;-76
2022/01/05 07:12:19;;;;;;;21.25;11.52;;;13.00;99.90;;;;;;5311824;27;20027;-77
2022/01/05 07:14:50;;;;;;;21.88;11.60;;;13.20;99.90;;;;;;5310925;27;20023;-77
2022/01/05 07:17:21;;;;;;;24.90;11.07;;;13.40;99.90;;;;;;5305406;27;20061;-76
2022/01/05 07:19:52;;;;;;;17.02;9.90;;;13.50;99.90;;;;;;5311415;27;20023;-77
2022/01/05 07:22:23;;;;;;;21.75;9.50;;;13.60;99.90;;;;;;5311603;27;20072;-76
2022/01/05 07:24:56;;;;;;;18.85;9.45;;;13.70;99.90;;;;;;5311459;27;20034;-76
2022/01/05 07:27:26;;;;;;;17.15;9.02;;;13.70;99.90;;;;;;5311333;27;20114;-75
2022/01/05 07:29:57;;;;;;;13.80;8.55;;;13.90;99.90;;;;;;5311531;27;20502;-77
2022/01/05 07:32:28;;;;;;;20.83;9.00;;;14.20;99.90;;;;;;5311377;27;20015;-75
2022/01/05 07:34:59;;;;;;;18.60;9.15;;;14.10;99.90;;;;;;5311228;27;20370;-78
2022/01/05 07:37:30;;;;;;;20.17;8.60;;;14.00;99.90;;;;;;5310596;27;20031;-77
2022/01/05 07:40:02;;;;;;;13.98;7.85;;;14.10;99.90;;;;;;5311472;27;20020;-76
2022/01/05 07:42:34;;;;;;;17.67;8.32;;;14.30;99.90;;;;;;5315520;27;20027;-76
2022/01/05 07:45:07;;;;;;;15.57;9.13;;;14.30;99.90;;;;;;5315483;27;20088;-76
2022/01/05 07:47:38;;;;;;;17.70;8.95;;;14.40;99.90;;;;;;5308677;27;20073;-75
2022/01/05 07:50:14;;;;;;;16.88;8.38;;;14.50;99.90;;;;;;5294496;28;20073;-75
2022/01/05 07:52:45;;;;;;;18.65;8.75;;;14.50;99.90;;;;;;5294293;27;20018;-75
2022/01/05 07:55:16;;;;;;;20.25;9.27;;;14.60;99.90;;;;;;5294154;28;20024;-77
2022/01/05 07:57:47;;;;;;;19.50;9.45;;;14.40;99.90;;;;;;5292991;28;20019;-75
2022/01/05 08:00:18;;;;;;;24.88;10.93;;;14.70;99.90;;;;;;5294293;28;20359;-75
2022/01/05 08:02:49;;;;;;;18.73;10.82;;;14.70;99.90;;;;;;5292942;28;20043;-76
2022/01/05 08:05:20;;;;;;;29.23;13.57;;;15.20;99.90;;;;;;5293875;28;20077;-75
2022/01/05 08:07:50;;;;;;;18.00;9.02;;;15.50;99.90;;;;;;5294109;28;20023;-75
2022/01/05 08:10:21;;;;;;;16.30;8.48;;;15.00;99.90;;;;;;5296285;27;20385;-75
2022/01/05 08:12:52;;;;;;;21.67;8.73;;;15.10;99.90;;;;;;5296531;27;20027;-75
2022/01/05 08:15:23;;;;;;;17.15;8.95;;;15.40;99.90;;;;;;5291146;28;20032;-76
2022/01/05 08:17:54;;;;;;;17.90;8.13;;;14.90;99.90;;;;;;5292348;28;20051;-76
2022/01/05 08:20:25;;;;;;;18.55;8.25;;;14.80;99.90;;;;;;5292436;28;20128;-76
2022/01/05 08:22:56;;;;;;;16.80;7.95;;;14.70;99.90;;;;;;5292373;28;20155;-76
2022/01/05 08:25:27;;;;;;;12.90;7.30;;;14.80;99.90;;;;;;5292181;28;20782;-76
2022/01/05 08:27:58;;;;;;;18.05;7.90;;;14.70;99.90;;;;;;5292108;28;20076;-75
2022/01/05 08:30:33;;;;;;;18.02;8.57;;;14.60;99.90;;;;;;5292201;28;20022;-75
2022/01/05 08:33:05;;;;;;;16.55;7.13;;;14.80;99.90;;;;;;5290859;28;20019;-76
2022/01/05 08:35:37;;;;;;;15.27;7.47;;;14.90;99.90;;;;;;5291728;27;20499;-78
2022/01/05 08:38:08;;;;;;;19.42;7.25;;;15.40;99.90;;;;;;5292139;28;20035;-77
2022/01/05 08:40:40;;;;;;;15.50;7.53;;;15.20;99.90;;;;;;5295082;27;20822;-77
2022/01/05 08:43:13;;;;;;;25.10;12.10;;;15.40;99.90;;;;;;5302420;27;20059;-75
2022/01/05 08:45:45;;;;;;;30.02;16.23;;;15.10;99.90;;;;;;5298105;27;20035;-75
2022/01/05 08:48:16;;;;;;;28.17;12.63;;;15.50;99.90;;;;;;5300848;27;20027;-75
2022/01/05 08:50:47;;;;;;;14.75;7.45;;;15.70;99.90;;;;;;5304738;27;20499;-77
2022/01/05 08:53:19;;;;;;;25.20;11.95;;;15.70;99.90;;;;;;5310822;27;20075;-77
2022/01/05 08:55:51;;;;;;;19.45;9.85;;;15.90;99.90;;;;;;5310387;27;20031;-76
2022/01/05 08:58:23;;;;;;;19.63;8.57;;;15.50;99.90;;;;;;5314299;27;20110;-76
2022/01/05 09:00:53;;;;;;;13.90;7.13;;;15.70;99.90;;;;;;5314115;27;20023;-75
2022/01/05 09:03:24;;;;;;;24.02;14.40;;;15.40;99.90;;;;;;5314018;27;20019;-74
2022/01/05 09:05:55;;;;;;;14.43;7.38;;;15.60;99.90;;;;;;5313977;27;20067;-75
2022/01/05 09:08:26;;;;;;;16.10;7.22;;;15.90;99.90;;;;;;5314113;27;20026;-75
2022/01/05 09:10:57;;;;;;;14.25;6.93;;;15.60;99.90;;;;;;5314189;27;20050;-75
2022/01/05 09:13:27;;;;;;;16.90;7.32;;;15.60;99.90;;;;;;5314027;27;20027;-75
2022/01/05 09:15:58;;;;;;;16.35;8.07;;;16.10;99.90;;;;;;5312461;27;20397;-74
2022/01/05 09:18:29;;;;;;;19.85;6.72;;;15.50;99.90;;;;;;5314009;27;20023;-74
2022/01/05 09:21:00;;;;;;;15.88;6.70;;;15.40;99.90;;;;;;5313791;27;20466;-74
2022/01/05 09:23:31;;;;;;;13.63;6.72;;;15.40;99.90;;;;;;5312567;27;20023;-76
2022/01/05 09:26:02;;;;;;;15.95;6.30;;;15.30;99.90;;;;;;5313523;27;20058;-75
2022/01/05 09:28:40;;;;;;;12.82;6.13;;;15.40;99.90;;;;;;5313804;27;20043;-76
2022/01/05 09:31:12;;;;;;;17.63;5.70;;;15.50;99.90;;;;;;5313822;27;20030;-75
2022/01/05 09:33:43;;;;;;;11.23;5.47;;;15.80;99.90;;;;;;5313184;27;20136;-74
2022/01/05 09:36:19;;;;;;;11.82;5.72;;;16.00;99.90;;;;;;5313324;27;20031;-74
2022/01/05 09:44:12;;;;;;;9.52;5.50;;;17.00;99.90;;;;;;5299169;27;20053;-75
2022/01/05 09:47:08;;;;;;;11.95;5.93;;;17.50;99.90;;;;;;5300062;27;20027;-75
2022/01/05 09:50:04;;;;;;;12.70;5.32;;;17.50;99.90;;;;;;5311051;27;20367;-75
2022/01/05 09:52:36;;;;;;;12.27;5.20;;;18.10;99.90;;;;;;5313265;27;20598;-75
2022/01/05 09:55:08;;;;;;;14.20;5.38;;;17.40;99.90;;;;;;5309680;27;20474;-75
2022/01/05 09:57:42;;;;;;;12.88;5.22;;;17.60;99.90;;;;;;5312167;27;20045;-75
2022/01/05 10:00:15;;;;;;;12.57;5.10;;;17.10;99.90;;;;;;5313112;27;20053;-75
2022/01/05 10:02:49;;;;;;;7.03;4.32;;;17.10;99.90;;;;;;5311293;27;20392;-75
2022/01/05 10:05:20;;;;;;;11.52;4.75;;;17.40;99.90;;;;;;5311684;27;20035;-75
2022/01/05 10:07:51;;;;;;;11.10;4.53;;;17.40;99.90;;;;;;5312858;27;20019;-75
2022/01/05 10:10:22;;;;;;;10.57;5.93;;;18.00;99.90;;;;;;5313028;27;20091;-76
2022/01/05 10:12:52;;;;;;;14.48;6.18;;;17.10;99.90;;;;;;5312751;27;20098;-75
2022/01/05 10:15:26;;;;;;;14.50;5.30;;;17.20;99.90;;;;;;5312702;27;20080;-75
2022/01/05 10:18:12;;;;;;;19.63;8.63;;;17.40;99.90;;;;;;5312626;27;20054;-75
2022/01/05 10:20:54;;;;;;;10.15;5.15;;;17.70;99.90;;;;;;5311400;27;20110;-75
2022/01/05 10:23:34;;;;;;;9.15;5.80;;;17.60;99.90;;;;;;5312830;27;20408;-75
2022/01/05 10:26:18;;;;;;;12.60;4.95;;;18.00;99.90;;;;;;5312390;27;20055;-75
2022/01/05 10:28:52;;;;;;;12.38;6.00;;;17.80;99.90;;;;;;5312556;27;20527;-74
2022/01/05 10:31:28;;;;;;;10.98;5.25;;;17.30;99.90;;;;;;5311318;27;20022;-75
2022/01/05 10:34:12;;;;;;;15.32;7.65;;;17.80;99.90;;;;;;5311800;27;20089;-75
2022/01/05 10:36:46;;;;;;;10.98;5.25;;;17.80;99.90;;;;;;5312440;27;20050;-75
2022/01/05 10:39:27;;;;;;;10.63;5.55;;;17.70;99.90;;;;;;5312533;27;20019;-76
2022/01/05 10:42:08;;;;;;;17.60;6.13;;;17.70;99.90;;;;;;5311898;27;20039;-75
2022/01/05 10:44:44;;;;;;;17.75;5.75;;;17.40;99.90;;;;;;5310793;27;20039;-74
2022/01/05 10:47:16;;;;;;;11.90;4.90;;;17.80;99.90;;;;;;5312078;27;20075;-75
2022/01/05 10:49:49;;;;;;;9.63;4.63;;;17.80;99.90;;;;;;5312108;27;20023;-75
2022/01/05 10:52:29;;;;;;;16.70;5.45;;;17.90;99.90;;;;;;5312021;27;20347;-75
2022/01/05 10:55:21;;;;;;;12.23;5.10;;;18.30;99.90;;;;;;5312037;27;20019;-75
2022/01/05 10:58:03;;;;;;;13.75;4.82;;;18.50;99.90;;;;;;5312191;27;20019;-75
2022/01/05 11:00:36;;;;;;;11.70;4.75;;;18.40;99.90;;;;;;5311793;27;20103;-76
2022/01/05 11:03:25;;;;;;;15.02;5.10;;;18.10;99.90;;;;;;5311625;27;20078;-75
2022/01/05 11:06:05;;;;;;;13.10;5.57;;;18.00;99.90;;;;;;5311682;27;20039;-74
2022/01/05 11:08:57;;;;;;;8.90;4.70;;;18.30;99.90;;;;;;5311730;27;20076;-75
2022/01/05 11:11:37;;;;;;;10.40;5.00;;;18.30;99.90;;;;;;5311716;27;20362;-74
2022/01/05 11:14:13;;;;;;;16.17;5.78;;;18.00;99.90;;;;;;5311856;27;20019;-76
2022/01/05 11:16:54;;;;;;;13.98;4.65;;;18.10;99.90;;;;;;5311442;27;20027;-75
2022/01/05 11:19:27;;;;;;;12.15;5.20;;;18.00;99.90;;;;;;5311514;27;20019;-74
2022/01/05 11:21:58;;;;;;;13.07;5.40;;;18.50;99.90;;;;;;5311540;27;20054;-74
2022/01/05 11:24:38;;;;;;;18.05;5.68;;;17.70;99.90;;;;;;5310960;27;20059;-74
2022/01/05 11:27:16;;;;;;;9.88;5.45;;;18.00;99.90;;;;;;5310644;27;20031;-74
2022/01/05 11:29:47;;;;;;;12.35;5.20;;;18.90;99.90;;;;;;5311550;27;20023;-74
2022/01/05 11:32:23;;;;;;;13.65;5.18;;;18.20;99.90;;;;;;5311407;27;20024;-75
2022/01/05 11:34:54;;;;;;;12.27;5.22;;;18.60;99.90;;;;;;5311229;27;20062;-74
2022/01/05 11:37:26;;;;;;;11.93;5.15;;;18.00;99.90;;;;;;5311314;27;20043;-73
2022/01/05 11:39:57;;;;;;;15.18;6.03;;;17.70;99.90;;;;;;5311364;27;20031;-74
2022/01/05 11:42:40;;;;;;;12.15;5.30;;;18.00;99.90;;;;;;5311322;27;20353;-73
2022/01/05 11:45:11;;;;;;;10.95;4.78;;;18.20;99.90;;;;;;5311057;27;20059;-74
2022/01/05 11:47:42;;;;;;;14.35;6.22;;;18.40;99.90;;;;;;5311164;27;20080;-73
2022/01/05 11:50:28;;;;;;;12.90;6.05;;;17.70;99.90;;;;;;5311403;27;20007;-74
2022/01/05 11:53:08;;;;;;;13.95;5.32;;;18.80;99.90;;;;;;5311468;27;20106;-75
2022/01/05 11:55:57;;;;;;;14.98;4.93;;;18.80;99.90;;;;;;5311289;27;20382;-74
2022/01/05 11:58:35;;;;;;;13.32;5.40;;;18.60;99.90;;;;;;5311146;27;20035;-74
2022/01/05 12:01:18;;;;;;;12.10;4.78;;;18.70;99.90;;;;;;5309950;27;20054;-77
2022/01/05 12:03:57;;;;;;;11.13;5.72;;;18.60;99.90;;;;;;5292499;28;20026;-74
2022/01/05 12:07:00;;;;;;;8.55;5.05;;;18.30;99.90;;;;;;5295598;27;20466;-76
2022/01/05 12:09:33;;;;;;;9.25;4.53;;;18.30;99.90;;;;;;5294904;28;20860;-75
2022/01/05 12:12:27;;;;;;;13.38;5.13;;;18.70;99.90;;;;;;5297631;27;20020;-77
2022/01/05 12:14:59;;;;;;;11.05;4.45;;;18.80;99.90;;;;;;5297052;28;20038;-75
2022/01/05 12:17:32;;;;;;;14.50;4.93;;;18.20;99.90;;;;;;5297634;27;20065;-76
2022/01/05 12:20:05;;;;;;;10.00;4.88;;;18.20;99.90;;;;;;5297551;27;20043;-76
2022/01/05 12:22:36;;;;;;;13.45;4.60;;;18.50;99.90;;;;;;5298227;27;20047;-75
2022/01/05 12:25:11;;;;;;;9.93;5.07;;;18.70;99.90;;;;;;5291575;28;20495;-75
2022/01/05 12:27:55;;;;;;;19.42;6.15;;;18.20;99.90;;;;;;5290377;28;20020;-76
2022/01/05 12:30:25;;;;;;;14.23;6.30;;;18.50;99.90;;;;;;5293615;28;20487;-76
2022/01/05 12:33:03;;;;;;;11.25;5.40;;;18.60;99.90;;;;;;5293452;28;20035;-75
2022/01/05 12:35:52;;;;;;;11.30;5.30;;;18.20;99.90;;;;;;5293301;28;20050;-76
2022/01/05 12:38:46;;;;;;;10.38;5.25;;;18.40;99.90;;;;;;5293794;28;20040;-74
2022/01/05 12:43:52;;;;;;;17.80;5.78;;;18.30;99.90;;;;;;5292890;28;20055;-74
2022/01/05 12:46:39;;;;;;;9.52;5.28;;;18.30;99.90;;;;;;5293326;28;20038;-80
2022/01/05 12:49:25;;;;;;;20.90;10.35;;;19.00;99.90;;;;;;5293350;28;20390;-74
2022/01/05 12:51:59;;;;;;;12.00;5.93;;;18.40;99.90;;;;;;5293122;28;20107;-74
2022/01/05 12:54:42;;;;;;;15.27;6.03;;;18.30;99.90;;;;;;5293096;28;20019;-74
2022/01/05 12:57:18;;;;;;;9.55;4.40;;;18.30;99.90;;;;;;5293108;28;20395;-74
2022/01/05 12:59:51;;;;;;;15.68;8.25;;;18.60;99.90;;;;;;5293135;28;20427;-76
2022/01/05 13:02:29;;;;;;;13.32;5.65;;;18.40;99.90;;;;;;5292943;28;20101;-75
2022/01/05 13:05:02;;;;;;;20.20;11.63;;;18.50;99.90;;;;;;5292506;27;20066;-73
2022/01/05 13:07:38;;;;;;;54.42;29.85;;;18.10;99.90;;;;;;5292711;28;20081;-75